KSAF/SAF METAR and TAF weather

Enter ICAO airport designator
Station Type Date Time Source
KSAF METAR 2019/12/06 13:53 UTC NOAA

KSAF 061353Z 02009KT 10SM CLR M02/M03 A3033 RMK AO2 SLP276 T10171028


Station Type Date Time Source
KSAF Decoded METAR 2019/12/06 13:53 UTC NOAA

SANTA FE COUNTY MUNICIPAL, NM, United States (KSAF) 35-37N 106-05W 1930M
Dec 06, 2019 - 08:53 AM EST / 2019.12.06 1353 UTC
Wind: from the NNE (020 degrees) at 10 MPH (9 KT):0
Visibility: 10 mile(s):0
Sky conditions: clear
Temperature: 28.9 F (-1.7 C)
Windchill: 19 F (-7 C):1
Dew Point: 27.0 F (-2.8 C)
Relative Humidity: 92%
Pressure (altimeter): 30.33 in. Hg (1027 hPa)
ob: KSAF 061353Z 02009KT 10SM CLR M02/M03 A3033 RMK AO2 SLP276 T10171028
cycle: 14

Station Type Date Time Source
KSAF TAF 2019/12/06 12:24 UTC NOAA

TAF KSAF 061120Z 0612/0712 01008KT P6SM SCT250
FM062100 31006KT P6SM BKN250
FM070200 36008KT P6SM SCT250

Example: see airport list